createdAt,value
2022-08-10T00:00:12.933Z,20.61
2022-08-10T00:02:39.973Z,20.62
2022-08-10T00:05:07.175Z,20.57
2022-08-10T00:07:34.453Z,20.64
2022-08-10T00:10:01.493Z,20.64
2022-08-10T00:12:34.634Z,20.66
2022-08-10T00:15:52.868Z,20.54
2022-08-10T00:18:04.254Z,20.70
2022-08-10T00:20:31.335Z,20.71
2022-08-10T00:22:59.508Z,20.80
2022-08-10T00:25:26.535Z,20.80
2022-08-10T00:28:03.612Z,20.86
2022-08-10T00:30:31.294Z,20.88
2022-08-10T00:32:58.533Z,20.85
2022-08-10T00:35:25.692Z,20.91
2022-08-10T00:37:58.085Z,20.90
2022-08-10T00:40:37.574Z,20.80
2022-08-10T00:43:08.212Z,20.81
2022-08-10T00:45:36.053Z,20.84
2022-08-10T00:48:03.537Z,20.90
2022-08-10T00:50:30.892Z,20.86
2022-08-10T00:52:58.095Z,20.86
2022-08-10T00:55:25.372Z,20.76
2022-08-10T00:57:54.931Z,20.88
2022-08-10T01:00:23.448Z,20.90
2022-08-10T01:02:50.815Z,20.77
2022-08-10T01:05:20.666Z,20.70
2022-08-10T01:07:51.092Z,20.68
2022-08-10T01:10:28.812Z,20.72
2022-08-10T01:12:55.936Z,20.60
2022-08-10T01:15:27.292Z,20.66
2022-08-10T01:17:59.013Z,20.62
2022-08-10T01:20:34.173Z,20.59
2022-08-10T01:23:07.573Z,20.47
2022-08-10T01:26:11.562Z,20.41
2022-08-10T01:28:35.175Z,20.45
2022-08-10T01:31:03.373Z,20.46
2022-08-10T01:33:59.194Z,20.38
2022-08-10T01:36:32.161Z,20.30
2022-08-10T01:39:01.853Z,20.25
2022-08-10T01:41:40.878Z,20.23
2022-08-10T01:44:33.694Z,20.27
2022-08-10T01:47:22.714Z,20.27
2022-08-10T01:49:54.303Z,20.27
2022-08-10T01:52:23.933Z,20.30
2022-08-10T01:54:52.872Z,20.28
2022-08-10T01:57:23.933Z,20.32
2022-08-10T02:00:01.985Z,20.28
2022-08-10T02:02:34.674Z,20.22
2022-08-10T02:05:02.861Z,20.25
2022-08-10T02:07:30.813Z,20.15
2022-08-10T02:09:59.509Z,20.04
2022-08-10T02:12:30.454Z,20.00
2022-08-10T02:14:59.659Z,19.97
2022-08-10T02:17:59.779Z,19.90
2022-08-10T02:20:18.613Z,19.79
2022-08-10T02:22:47.333Z,19.78
2022-08-10T02:25:42.122Z,19.75
2022-08-10T02:28:05.212Z,19.70
2022-08-10T02:30:33.333Z,19.68
2022-08-10T02:33:01.952Z,19.67
2022-08-10T02:35:29.293Z,19.59
2022-08-10T02:38:10.452Z,19.60
2022-08-10T02:45:12.825Z,19.57
2022-08-10T02:45:22.328Z,19.51
2022-08-10T02:46:33.975Z,19.36
2022-08-10T02:49:04.972Z,19.35
2022-08-10T02:52:06.997Z,19.38
2022-08-10T02:54:28.852Z,19.26
2022-08-10T02:57:08.013Z,19.25
2022-08-10T02:59:40.331Z,19.23
2022-08-10T03:02:09.013Z,19.18
2022-08-10T03:04:55.963Z,19.07
2022-08-10T03:07:43.989Z,18.96
2022-08-10T03:10:20.053Z,18.85
2022-08-10T03:12:50.472Z,18.86
2022-08-10T03:15:18.988Z,18.79
2022-08-10T03:17:58.373Z,18.77
2022-08-10T03:20:38.401Z,18.79
2022-08-10T03:23:32.655Z,18.72
2022-08-10T03:26:01.261Z,18.71
2022-08-10T03:28:29.532Z,18.70
2022-08-10T03:30:57.532Z,18.73
2022-08-10T03:33:26.292Z,18.67
2022-08-10T03:36:42.879Z,18.66
2022-08-10T03:38:46.420Z,18.64
2022-08-10T03:41:16.100Z,18.72
2022-08-10T03:43:46.732Z,18.63
2022-08-10T03:46:14.412Z,18.66
2022-08-10T03:48:48.842Z,18.65
2022-08-10T03:51:17.854Z,18.67
2022-08-10T03:54:04.779Z,18.65
2022-08-10T03:56:33.152Z,18.70
2022-08-10T03:59:00.932Z,18.75
2022-08-10T04:02:43.348Z,18.70
2022-08-10T04:04:22.508Z,18.70
2022-08-10T04:06:55.879Z,18.69
2022-08-10T04:09:24.035Z,18.60
2022-08-10T04:11:51.012Z,18.56
2022-08-10T04:14:44.965Z,18.61
2022-08-10T04:17:05.292Z,18.60
2022-08-10T04:19:42.213Z,18.56
2022-08-10T04:22:14.301Z,18.52
2022-08-10T04:24:42.132Z,18.60
2022-08-10T04:27:09.494Z,18.51
2022-08-10T04:29:36.693Z,18.54
2022-08-10T04:32:04.579Z,18.63
2022-08-10T04:34:32.780Z,18.73
2022-08-10T04:37:04.359Z,18.76
2022-08-10T04:39:34.125Z,18.92
2022-08-10T04:42:01.292Z,19.01
2022-08-10T04:44:28.292Z,19.10
2022-08-10T04:46:58.204Z,19.17
2022-08-10T04:49:54.028Z,19.30
2022-08-10T04:52:14.093Z,19.31
2022-08-10T04:54:41.811Z,19.38
2022-08-10T04:57:09.281Z,19.38
2022-08-10T04:59:36.692Z,19.51
2022-08-10T05:02:22.082Z,19.55
2022-08-10T05:04:50.891Z,19.51
2022-08-10T05:07:18.347Z,19.60
2022-08-10T05:10:02.230Z,19.75
2022-08-10T05:12:34.631Z,19.77
2022-08-10T05:15:03.373Z,20.05
2022-08-10T05:17:30.452Z,20.17
2022-08-10T05:20:03.568Z,20.32
2022-08-10T05:22:34.135Z,20.46
2022-08-10T05:25:01.270Z,20.57
2022-08-10T05:27:28.373Z,20.65
2022-08-10T05:30:02.627Z,20.75
2022-08-10T05:32:55.658Z,20.98
2022-08-10T05:35:21.574Z,21.33
2022-08-10T05:38:10.596Z,21.67
2022-08-10T05:40:42.712Z,21.88
2022-08-10T05:43:21.696Z,21.97
2022-08-10T05:46:17.166Z,22.04
2022-08-10T05:48:56.085Z,22.08
2022-08-10T05:51:25.654Z,22.17
2022-08-10T05:54:02.028Z,22.21
2022-08-10T05:56:53.566Z,22.14
2022-08-10T06:00:11.170Z,22.05
2022-08-10T06:02:32.109Z,22.07
2022-08-10T06:04:55.853Z,22.25
2022-08-10T06:07:27.495Z,22.28
2022-08-10T06:09:59.636Z,22.15
2022-08-10T06:12:31.743Z,22.35
2022-08-10T06:15:05.777Z,22.63
2022-08-10T06:17:37.697Z,22.93
2022-08-10T06:20:05.092Z,23.16
2022-08-10T06:22:33.466Z,23.31
2022-08-10T06:25:32.379Z,23.43
2022-08-10T06:27:52.332Z,23.59
2022-08-10T06:30:20.956Z,23.53
2022-08-10T06:32:53.452Z,23.61
2022-08-10T06:35:21.133Z,23.65
2022-08-10T06:37:50.958Z,23.52
2022-08-10T06:40:19.902Z,23.44
2022-08-10T06:42:48.571Z,23.52
2022-08-10T06:45:38.773Z,23.60
2022-08-10T06:48:10.492Z,23.66
2022-08-10T06:50:56.071Z,23.72
2022-08-10T06:53:54.054Z,23.71
2022-08-10T06:56:36.862Z,23.78
2022-08-10T06:59:22.237Z,23.91
2022-08-10T07:01:52.502Z,23.97
2022-08-10T07:04:32.806Z,24.02
2022-08-10T07:07:02.452Z,24.05
2022-08-10T07:09:30.932Z,24.09
2022-08-10T07:11:58.653Z,24.10
2022-08-10T07:14:44.052Z,24.09
2022-08-10T07:17:15.683Z,24.03
2022-08-10T07:19:50.096Z,24.05
2022-08-10T07:23:53.774Z,23.98
2022-08-10T07:25:09.181Z,24.02
2022-08-10T07:27:39.163Z,24.01
2022-08-10T07:30:28.655Z,24.04
2022-08-10T07:32:56.461Z,24.05
2022-08-10T07:35:24.733Z,24.08
2022-08-10T07:37:53.222Z,24.10
2022-08-10T07:40:21.433Z,23.97
2022-08-10T07:42:51.455Z,23.68
2022-08-10T07:45:18.820Z,23.87
2022-08-10T07:48:18.015Z,23.94
2022-08-10T07:50:46.670Z,24.04
2022-08-10T07:53:17.652Z,24.22
2022-08-10T07:56:04.465Z,24.31
2022-08-10T07:58:39.812Z,24.39
2022-08-10T08:01:15.371Z,24.58
2022-08-10T08:03:46.814Z,24.71
2022-08-10T08:06:34.012Z,24.76
2022-08-10T08:09:02.012Z,24.81
2022-08-10T08:11:30.095Z,24.87
2022-08-10T08:13:58.852Z,24.98
2022-08-10T08:16:26.019Z,25.02
2022-08-10T08:19:25.520Z,24.95
2022-08-10T08:24:09.203Z,24.98
2022-08-10T08:24:34.222Z,24.87
2022-08-10T08:27:06.111Z,24.91
2022-08-10T08:29:37.457Z,24.90
2022-08-10T08:32:05.144Z,24.84
2022-08-10T08:34:33.015Z,24.88
2022-08-10T08:37:01.213Z,24.90
2022-08-10T08:39:28.868Z,24.96
2022-08-10T08:42:15.332Z,25.06
2022-08-10T08:44:42.412Z,25.18
2022-08-10T08:48:02.983Z,25.34
2022-08-10T08:50:16.662Z,25.58
2022-08-10T08:53:02.253Z,25.79
2022-08-10T08:56:04.736Z,26.01
2022-08-10T08:58:47.173Z,26.21
2022-08-10T09:01:23.740Z,26.45
2022-08-10T09:04:19.706Z,26.59
2022-08-10T09:06:51.852Z,26.69
2022-08-10T09:09:44.294Z,26.73
2022-08-10T09:12:34.214Z,26.74
2022-08-10T09:15:04.373Z,26.75
2022-08-10T09:17:34.134Z,26.73
2022-08-10T09:20:17.580Z,26.71
2022-08-10T09:22:57.393Z,26.74
2022-08-10T09:25:26.502Z,26.84
2022-08-10T09:28:12.213Z,26.94
2022-08-10T09:31:03.698Z,27.03
2022-08-10T09:36:22.615Z,27.12
2022-08-10T09:36:46.854Z,27.31
2022-08-10T09:40:55.990Z,27.44
2022-08-10T09:42:07.540Z,27.60
2022-08-10T09:44:57.606Z,27.74
2022-08-10T09:48:01.506Z,27.87
2022-08-10T09:51:22.791Z,27.95
2022-08-10T09:53:52.533Z,28.07
2022-08-10T09:56:22.361Z,28.21
2022-08-10T09:59:27.242Z,28.42
2022-08-10T10:02:03.716Z,28.65
2022-08-10T10:04:31.492Z,28.77
2022-08-10T10:07:04.735Z,28.93
2022-08-10T10:09:37.094Z,29.12
2022-08-10T10:12:09.713Z,29.19
2022-08-10T10:15:25.156Z,29.37
2022-08-10T10:18:08.020Z,29.57
2022-08-10T10:20:35.221Z,29.70
2022-08-10T10:23:02.212Z,29.73
2022-08-10T10:25:49.846Z,29.72
2022-08-10T10:28:57.548Z,29.95
2022-08-10T10:31:27.612Z,29.94
2022-08-10T10:34:02.702Z,29.87
2022-08-10T10:36:30.013Z,29.75
2022-08-10T10:38:59.059Z,29.77
2022-08-10T10:41:29.133Z,29.78
2022-08-10T10:44:14.774Z,29.90
2022-08-10T10:47:00.412Z,29.92
2022-08-10T10:49:43.134Z,30.08
2022-08-10T10:52:20.532Z,30.22
2022-08-10T10:54:50.533Z,30.21
2022-08-10T10:57:58.656Z,30.30
2022-08-10T11:00:18.653Z,30.36
2022-08-10T11:14:23.302Z,29.47
2022-08-10T11:16:37.053Z,29.18
2022-08-10T11:19:19.054Z,29.10
2022-08-10T11:22:07.413Z,29.12
2022-08-10T11:24:57.500Z,29.39
2022-08-10T11:27:49.180Z,29.63
2022-08-10T11:30:26.293Z,30.12
2022-08-10T11:33:32.620Z,30.52
2022-08-10T11:36:06.252Z,30.57
2022-08-10T11:39:13.396Z,30.83
2022-08-10T11:42:07.740Z,31.02
2022-08-10T11:44:47.862Z,31.49
2022-08-10T11:47:21.211Z,31.75
2022-08-10T11:50:00.373Z,32.02
2022-08-10T11:52:30.333Z,32.28
2022-08-10T11:55:03.621Z,32.30
2022-08-10T11:57:53.396Z,32.36
2022-08-10T12:00:21.132Z,32.41
2022-08-10T12:02:57.509Z,32.31
2022-08-10T12:05:46.588Z,32.48
2022-08-10T12:10:04.071Z,32.61
2022-08-10T12:11:09.532Z,32.78
2022-08-10T12:14:20.278Z,32.82
2022-08-10T12:16:58.341Z,33.04
2022-08-10T12:19:58.789Z,33.17
2022-08-10T12:22:30.132Z,33.54
2022-08-10T12:25:04.374Z,33.92
2022-08-10T12:27:50.733Z,34.35
2022-08-10T12:30:23.371Z,34.78
2022-08-10T12:33:05.212Z,34.60
2022-08-10T12:35:56.065Z,34.59
2022-08-10T12:38:40.461Z,34.33
2022-08-10T12:41:43.839Z,34.03
2022-08-10T12:44:15.133Z,33.63
2022-08-10T12:46:57.175Z,33.36
2022-08-10T12:49:39.780Z,33.15
2022-08-10T12:52:38.331Z,33.01
2022-08-10T12:55:07.932Z,32.91
2022-08-10T12:57:39.213Z,32.97
2022-08-10T13:00:09.914Z,33.08
2022-08-10T13:02:49.184Z,33.08
2022-08-10T13:05:17.852Z,33.28
2022-08-10T13:08:26.033Z,33.53
2022-08-10T13:10:45.095Z,33.91
2022-08-10T13:13:15.972Z,34.13
2022-08-10T13:15:50.500Z,34.57
2022-08-10T13:18:28.260Z,34.76
2022-08-10T13:21:04.933Z,34.74
2022-08-10T13:24:03.622Z,35.01
2022-08-10T13:27:25.298Z,35.06
2022-08-10T13:29:33.266Z,34.81
2022-08-10T13:32:09.681Z,34.38
2022-08-10T13:34:44.855Z,33.95
2022-08-10T13:37:16.212Z,33.74
2022-08-10T13:39:59.088Z,33.35
2022-08-10T13:42:33.022Z,33.12
2022-08-10T13:45:10.196Z,32.71
2022-08-10T13:47:49.207Z,32.38
2022-08-10T13:50:33.638Z,32.05
2022-08-10T13:53:14.654Z,31.73
2022-08-10T13:55:54.093Z,31.29
2022-08-10T13:58:26.695Z,31.04
2022-08-10T14:00:55.514Z,30.92
2022-08-10T14:03:23.933Z,30.69
2022-08-10T14:05:58.733Z,30.64
2022-08-10T14:08:30.053Z,30.64
2022-08-10T14:11:11.211Z,30.49
2022-08-10T14:14:08.213Z,30.40
2022-08-10T14:16:42.656Z,30.31
2022-08-10T14:19:24.967Z,30.22
2022-08-10T14:21:52.933Z,30.11
2022-08-10T14:24:27.460Z,30.06
2022-08-10T14:27:04.413Z,29.99
2022-08-10T14:29:38.853Z,29.99
2022-08-10T14:32:08.734Z,29.94
2022-08-10T14:36:16.545Z,29.98
2022-08-10T14:37:38.176Z,30.01
2022-08-10T14:40:14.980Z,30.00
2022-08-10T14:42:53.253Z,30.28
2022-08-10T14:45:24.989Z,30.47
2022-08-10T14:48:00.797Z,30.79
2022-08-10T14:50:32.736Z,31.11
2022-08-10T14:53:09.756Z,31.40
2022-08-10T14:55:59.207Z,31.65
2022-08-10T14:58:31.820Z,31.85
2022-08-10T15:01:00.025Z,31.95
2022-08-10T15:03:58.348Z,31.98
2022-08-10T15:06:30.814Z,31.96
2022-08-10T15:09:19.195Z,32.17
2022-08-10T15:12:13.444Z,32.18
2022-08-10T15:14:45.788Z,32.33
2022-08-10T15:17:23.933Z,32.44
2022-08-10T15:20:02.936Z,32.62
2022-08-10T15:22:40.895Z,32.67
2022-08-10T15:25:18.751Z,32.80
2022-08-10T15:27:55.095Z,32.87
2022-08-10T15:30:32.575Z,32.80
2022-08-10T15:34:00.247Z,32.84
2022-08-10T15:36:40.454Z,32.66
2022-08-10T15:40:21.786Z,32.48
2022-08-10T15:42:55.653Z,32.35
2022-08-10T15:45:26.173Z,32.30
2022-08-10T15:48:03.293Z,32.51
2022-08-10T15:50:44.213Z,32.47
2022-08-10T15:53:15.756Z,32.27
2022-08-10T15:55:55.172Z,32.00
2022-08-10T15:58:40.059Z,32.05
2022-08-10T16:02:14.481Z,32.03
2022-08-10T16:04:08.410Z,31.86
2022-08-10T16:06:43.373Z,31.86
2022-08-10T16:10:22.305Z,31.75
2022-08-10T16:12:16.628Z,31.73
2022-08-10T16:14:47.852Z,31.59
2022-08-10T16:17:16.615Z,31.45
2022-08-10T16:19:57.093Z,31.12
2022-08-10T16:22:35.431Z,30.95
2022-08-10T16:25:14.503Z,30.80
2022-08-10T16:27:44.182Z,30.54
2022-08-10T16:30:11.934Z,30.41
2022-08-10T16:32:39.981Z,30.28
2022-08-10T16:35:10.615Z,30.17
2022-08-10T16:37:58.410Z,29.98
2022-08-10T16:40:29.598Z,29.77
2022-08-10T16:42:58.972Z,29.61
2022-08-10T16:45:37.140Z,29.47
2022-08-10T16:48:06.092Z,29.42
2022-08-10T16:50:41.958Z,29.31
2022-08-10T16:53:14.812Z,29.23
2022-08-10T16:55:50.497Z,29.17
2022-08-10T16:58:43.816Z,29.02
2022-08-10T17:01:24.210Z,28.92
2022-08-10T17:04:07.932Z,28.80
2022-08-10T17:06:36.733Z,28.73
2022-08-10T17:09:07.345Z,28.62
2022-08-10T17:11:37.868Z,28.51
2022-08-10T17:14:09.382Z,28.37
2022-08-10T17:16:40.933Z,28.27
2022-08-10T17:19:15.252Z,28.20
2022-08-10T17:21:51.966Z,28.10
2022-08-10T17:24:24.492Z,28.00
2022-08-10T17:26:51.851Z,27.92
2022-08-10T17:29:58.375Z,27.82
2022-08-10T17:32:29.892Z,27.73
2022-08-10T17:35:01.419Z,27.63
2022-08-10T17:37:34.341Z,27.50
2022-08-10T17:40:11.621Z,27.45
2022-08-10T17:42:40.866Z,27.37
2022-08-10T17:45:21.005Z,27.27
2022-08-10T17:48:07.135Z,27.18
2022-08-10T17:50:38.057Z,27.11
2022-08-10T17:53:17.573Z,27.04
2022-08-10T17:55:47.149Z,26.97
2022-08-10T17:58:18.333Z,26.86
2022-08-10T18:00:49.552Z,26.81
2022-08-10T18:03:25.813Z,26.77
2022-08-10T18:05:56.671Z,26.71
2022-08-10T18:08:35.453Z,26.63
2022-08-10T18:11:05.980Z,26.53
2022-08-10T18:13:55.474Z,26.45
2022-08-10T18:16:26.698Z,26.40
2022-08-10T18:19:00.216Z,26.29
2022-08-10T18:21:30.819Z,26.25
2022-08-10T18:24:07.292Z,26.16
2022-08-10T18:26:37.532Z,26.09
2022-08-10T18:29:13.413Z,26.06
2022-08-10T18:31:48.339Z,26.00
2022-08-10T18:34:18.866Z,25.93
2022-08-10T18:36:48.932Z,25.89
2022-08-10T18:39:22.200Z,25.76
2022-08-10T18:42:05.363Z,25.74
2022-08-10T18:44:41.414Z,25.68
2022-08-10T18:47:19.957Z,25.60
2022-08-10T18:49:56.013Z,25.52
2022-08-10T18:52:26.541Z,25.45
2022-08-10T18:55:03.772Z,25.40
2022-08-10T18:58:17.414Z,25.36
2022-08-10T19:01:17.464Z,25.27
2022-08-10T19:04:00.095Z,25.23
2022-08-10T19:07:04.861Z,25.18
2022-08-10T19:09:56.336Z,25.16
2022-08-10T19:12:42.213Z,25.09
2022-08-10T19:15:18.294Z,24.96
2022-08-10T19:18:06.011Z,24.94
2022-08-10T19:20:57.777Z,24.84
2022-08-10T19:23:38.173Z,24.78
2022-08-10T19:26:57.572Z,24.69
2022-08-10T19:30:05.127Z,24.64
2022-08-10T19:33:06.501Z,24.57
2022-08-10T19:36:03.538Z,24.51
2022-08-10T19:38:57.297Z,24.46
2022-08-10T19:41:32.337Z,24.42
2022-08-10T19:44:11.613Z,24.32
2022-08-10T19:46:48.939Z,24.32
2022-08-10T19:49:55.533Z,24.12
2022-08-10T19:52:30.493Z,24.09
2022-08-10T19:55:31.293Z,23.90
2022-08-10T19:58:31.975Z,23.82
2022-08-10T20:01:05.258Z,23.72
2022-08-10T20:03:56.932Z,23.62
2022-08-10T20:06:37.693Z,23.52
2022-08-10T20:09:23.093Z,23.40
2022-08-10T20:11:59.018Z,23.35
2022-08-10T20:14:36.374Z,23.33
2022-08-10T20:17:13.777Z,23.25
2022-08-10T20:19:56.625Z,23.24
2022-08-10T20:22:28.719Z,23.22
2022-08-10T20:25:02.024Z,23.18
2022-08-10T20:27:58.669Z,23.09
2022-08-10T20:30:33.056Z,23.07
2022-08-10T20:33:18.013Z,23.06
2022-08-10T20:35:53.575Z,23.06
2022-08-10T20:38:40.495Z,23.03
2022-08-10T20:41:33.376Z,23.00
2022-08-10T20:44:32.094Z,22.97
2022-08-10T20:47:18.894Z,22.94
2022-08-10T20:50:16.295Z,22.87
2022-08-10T20:52:45.614Z,22.77
2022-08-10T20:55:14.934Z,22.80
2022-08-10T20:57:56.949Z,22.81
2022-08-10T21:00:49.457Z,22.66
2022-08-10T21:03:35.533Z,22.60
2022-08-10T21:06:35.961Z,22.56
2022-08-10T21:09:34.495Z,22.49
2022-08-10T21:12:16.822Z,22.42
2022-08-10T21:14:56.697Z,22.30
2022-08-10T21:17:52.188Z,22.24
2022-08-10T21:20:30.483Z,22.22
2022-08-10T21:23:05.414Z,22.19
2022-08-10T21:25:51.908Z,22.17
2022-08-10T21:28:44.820Z,22.17
2022-08-10T21:31:55.275Z,22.20
2022-08-10T21:34:59.656Z,22.15
2022-08-10T21:37:39.750Z,22.14
2022-08-10T21:40:41.814Z,22.19
2022-08-10T21:43:47.654Z,22.21
2022-08-10T21:47:30.915Z,22.31
2022-08-10T21:50:27.318Z,22.38
2022-08-10T21:53:44.552Z,22.36
2022-08-10T21:56:51.374Z,22.43
2022-08-10T22:00:11.010Z,22.41
2022-08-10T22:02:58.057Z,22.28
2022-08-10T22:05:51.497Z,22.23
2022-08-10T22:08:44.570Z,22.24
2022-08-10T22:11:37.866Z,22.22
2022-08-10T22:14:26.536Z,22.17
2022-08-10T22:17:59.830Z,22.15
2022-08-10T22:20:49.697Z,22.11
2022-08-10T22:23:41.538Z,22.04
2022-08-10T22:26:36.453Z,22.03
2022-08-10T22:29:42.573Z,22.04
2022-08-10T22:32:37.925Z,22.10
2022-08-10T22:35:32.655Z,22.05
2022-08-10T22:38:44.631Z,21.99
2022-08-10T22:41:40.371Z,21.91
2022-08-10T22:44:29.980Z,21.91
2022-08-10T22:47:17.921Z,21.91
2022-08-10T22:49:44.921Z,21.81
2022-08-10T22:52:18.030Z,21.75
2022-08-10T22:55:18.410Z,21.67
2022-08-10T22:58:09.424Z,21.66
2022-08-10T23:00:37.660Z,21.62
2022-08-10T23:03:12.954Z,21.62
2022-08-10T23:05:54.124Z,21.59
2022-08-10T23:08:32.436Z,21.59
2022-08-10T23:11:07.202Z,21.55
2022-08-10T23:13:42.503Z,21.54
2022-08-10T23:16:37.831Z,21.53
2022-08-10T23:19:22.719Z,21.46
2022-08-10T23:22:05.319Z,21.47
2022-08-10T23:24:38.761Z,21.44
2022-08-10T23:27:12.893Z,21.33
2022-08-10T23:30:04.091Z,21.33
2022-08-10T23:32:42.718Z,21.29
2022-08-10T23:36:13.147Z,21.23
2022-08-10T23:38:06.262Z,21.24
2022-08-10T23:40:35.479Z,21.17
2022-08-10T23:43:04.260Z,21.26
2022-08-10T23:45:53.313Z,21.19
2022-08-10T23:48:23.459Z,21.21
2022-08-10T23:50:59.621Z,21.22
2022-08-10T23:53:35.700Z,21.23
2022-08-10T23:56:12.884Z,21.36
2022-08-10T23:58:46.220Z,21.42
